PWSweather.com
Personal Weather Stations
Station Observations
KRMIDAS
Braemar, Lake Zurich, IL 60047

BraemarLake Zurich, IL 60047

Lat: 42.178, Lon: -88.102

Elevation: 837

Station Type: Davis Vantage Pro 2

http://tomkeramidas.com/cumulus/index.htm

Latest ConditionsUpdated 12:45:00 PM CDT Monday, Oct 20, 2014
Currently Today's Max Today's Min Today's Average
Temperature 64.9°F18.3°C 64.9°F18.3°C 43.5°F6.4°C 50.7°F10.4°C
Dew Point 51.1°F10.6°C 51.7°F10.9°C 41.6°F5.3°C 46.0°F7.8°C
Winds 4.0 mph WNW6.4 kmh WNW 6.0 mph WNW9.7 kmh WNW - 2.7 mph 4.3 kmh
Wind Gusts 14.0 mph22.5 kmh 16.0 mph25.7 kmh - -
Humidity 61% 96% 61% 84%
Pressure 29.85 in1010.8 mb 29.91 in1012.9 mb 29.80 in1009.1 mb -
Hour Temp Dew Point Humidity Winds Wind Gusts Pressure Precip Precip Rate Daily Precip Total
12:45 PM 64.9°F18.3°C 51.1°F10.6°C 61% 4.0 mph WNW6.4 kmh WNW 14.0 mph22.5 kmh 29.85 in1010.8 mb 0.00 in0.0 mm 0.00 in/hr0.0 mm/hr 0.00 in0.0 mm
12:30 PM 64.1°F17.8°C 51.7°F10.9°C 64% 6.0 mph WNW9.7 kmh WNW 13.0 mph20.9 kmh 29.86 in1011.2 mb 0.00 in0.0 mm 0.00 in/hr0.0 mm/hr 0.00 in0.0 mm
12:15 PM 63.6°F17.6°C 51.2°F10.7°C 64% 4.0 mph WNW6.4 kmh WNW 11.0 mph17.7 kmh 29.86 in1011.2 mb 0.00 in0.0 mm 0.00 in/hr0.0 mm/hr 0.00 in0.0 mm
12:00 PM 62.2°F16.8°C 51.5°F10.8°C 68% 4.0 mph NW6.4 kmh NW 11.0 mph17.7 kmh 29.86 in1011.2 mb 0.00 in0.0 mm 0.00 in/hr0.0 mm/hr 0.00 in0.0 mm
11:45 AM 61.7°F16.5°C 50.2°F10.1°C 66% 4.0 mph NW6.4 kmh NW 12.0 mph19.3 kmh 29.86 in1011.2 mb 0.00 in0.0 mm 0.00 in/hr0.0 mm/hr 0.00 in0.0 mm
11:30 AM 61.2°F16.2°C 51.7°F10.9°C 71% 3.0 mph NW4.8 kmh NW 11.0 mph17.7 kmh 29.86 in1011.2 mb 0.00 in0.0 mm 0.00 in/hr0.0 mm/hr 0.00 in0.0 mm
11:15 AM 59.1°F15.1°C 51.5°F10.8°C 76% 1.0 mph NW1.6 kmh NW 7.0 mph11.3 kmh 29.86 in1011.2 mb 0.00 in0.0 mm 0.00 in/hr0.0 mm/hr 0.00 in0.0 mm
11:00 AM 55.8°F13.2°C 49.4°F9.7°C 79% 2.0 mph NW3.2 kmh NW 7.0 mph11.3 kmh 29.86 in1011.2 mb 0.00 in0.0 mm 0.00 in/hr0.0 mm/hr 0.00 in0.0 mm
10:45 AM 54.4°F12.4°C 48.7°F9.3°C 81% 3.0 mph WNW4.8 kmh WNW 9.0 mph14.5 kmh 29.87 in1011.5 mb 0.00 in0.0 mm 0.00 in/hr0.0 mm/hr 0.00 in0.0 mm
10:30 AM 55.1°F12.8°C 48.7°F9.3°C 79% 4.0 mph WNW6.4 kmh WNW 12.0 mph19.3 kmh 29.86 in1011.2 mb 0.00 in0.0 mm 0.00 in/hr0.0 mm/hr 0.00 in0.0 mm
10:15 AM 55.1°F12.8°C 48.7°F9.3°C 79% 5.0 mph NW8.0 kmh NW 12.0 mph19.3 kmh 29.86 in1011.2 mb 0.00 in0.0 mm 0.00 in/hr0.0 mm/hr 0.00 in0.0 mm
10:00 AM 53.6°F12.0°C 48.2°F9.0°C 82% 3.0 mph NW4.8 kmh NW 12.0 mph19.3 kmh 29.86 in1011.2 mb 0.00 in0.0 mm 0.00 in/hr0.0 mm/hr 0.00 in0.0 mm
09:45 AM 52.6°F11.4°C 47.9°F8.8°C 84% 4.0 mph NW6.4 kmh NW 12.0 mph19.3 kmh 29.85 in1010.8 mb 0.00 in0.0 mm 0.00 in/hr0.0 mm/hr 0.00 in0.0 mm
09:30 AM 51.5°F10.8°C 47.8°F8.8°C 87% 1.0 mph NW1.6 kmh NW 10.0 mph16.1 kmh 29.85 in1010.8 mb 0.00 in0.0 mm 0.00 in/hr0.0 mm/hr 0.00 in0.0 mm
09:15 AM 49.8°F9.9°C 47.0°F8.3°C 90% 2.0 mph WNW3.2 kmh WNW 12.0 mph19.3 kmh 29.85 in1010.8 mb 0.00 in0.0 mm 0.00 in/hr0.0 mm/hr 0.00 in0.0 mm
09:00 AM 48.2°F9.0°C 46.3°F7.9°C 93% 1.0 mph W1.6 kmh W 10.0 mph16.1 kmh 29.85 in1010.8 mb 0.00 in0.0 mm 0.00 in/hr0.0 mm/hr 0.00 in0.0 mm
08:45 AM 46.8°F8.2°C 45.4°F7.4°C 95% 1.0 mph W1.6 kmh W 9.0 mph14.5 kmh 29.84 in1010.5 mb 0.00 in0.0 mm 0.00 in/hr0.0 mm/hr 0.00 in0.0 mm
08:30 AM 45.5°F7.5°C 44.4°F6.9°C 96% Calm Calm 4.0 mph6.4 kmh 29.83 in1010.2 mb 0.00 in0.0 mm 0.00 in/hr0.0 mm/hr 0.00 in0.0 mm
08:15 AM 44.7°F7.1°C 43.6°F6.4°C 96% Calm Calm 1.0 mph1.6 kmh 29.83 in1010.2 mb 0.00 in0.0 mm 0.00 in/hr0.0 mm/hr 0.00 in0.0 mm
08:00 AM 43.8°F6.6°C 42.5°F5.8°C 95% Calm Calm 6.0 mph9.7 kmh 29.83 in1010.2 mb 0.00 in0.0 mm 0.00 in/hr0.0 mm/hr 0.00 in0.0 mm
07:45 AM 43.5°F6.4°C 41.9°F5.5°C 94% Calm Calm 3.0 mph4.8 kmh 29.82 in1009.8 mb 0.00 in0.0 mm 0.00 in/hr0.0 mm/hr 0.00 in0.0 mm
07:30 AM 43.5°F6.4°C 41.6°F5.3°C 93% Calm Calm -- 29.82 in1009.8 mb 0.00 in0.0 mm 0.00 in/hr0.0 mm/hr 0.00 in0.0 mm
07:00 AM 44.4°F6.9°C 42.2°F5.7°C 92% Calm Calm -- 29.82 in1009.8 mb 0.00 in0.0 mm 0.00 in/hr0.0 mm/hr 0.00 in0.0 mm
06:45 AM 45.0°F7.2°C 42.8°F6.0°C 92% Calm Calm -- 29.81 in1009.5 mb 0.00 in0.0 mm 0.00 in/hr0.0 mm/hr 0.00 in0.0 mm
06:30 AM 45.5°F7.5°C 43.3°F6.3°C 92% Calm Calm -- 29.81 in1009.5 mb 0.00 in0.0 mm 0.00 in/hr0.0 mm/hr 0.00 in0.0 mm
06:15 AM 45.9°F7.7°C 43.4°F6.3°C 91% 1.0 mph SSW1.6 kmh SSW 5.0 mph8.0 kmh 29.81 in1009.5 mb 0.00 in0.0 mm 0.00 in/hr0.0 mm/hr 0.00 in0.0 mm
06:00 AM 46.3°F7.9°C 43.8°F6.6°C 91% 1.0 mph SW1.6 kmh SW 6.0 mph9.7 kmh 29.81 in1009.5 mb 0.00 in0.0 mm 0.00 in/hr0.0 mm/hr 0.00 in0.0 mm
05:45 AM 46.8°F8.2°C 44.0°F6.7°C 90% 1.0 mph SSW1.6 kmh SSW 6.0 mph9.7 kmh 29.80 in1009.1 mb 0.00 in0.0 mm 0.00 in/hr0.0 mm/hr 0.00 in0.0 mm
05:30 AM 47.2°F8.4°C 44.4°F6.9°C 90% 1.0 mph SSW1.6 kmh SSW 5.0 mph8.0 kmh 29.81 in1009.5 mb 0.00 in0.0 mm 0.00 in/hr0.0 mm/hr 0.00 in0.0 mm
05:15 AM 47.6°F8.7°C 44.5°F6.9°C 89% 2.0 mph SW3.2 kmh SW 7.0 mph11.3 kmh 29.81 in1009.5 mb 0.00 in0.0 mm 0.00 in/hr0.0 mm/hr 0.00 in0.0 mm
05:00 AM 47.9°F8.8°C 44.8°F7.1°C 89% 1.0 mph SSW1.6 kmh SSW 5.0 mph8.0 kmh 29.81 in1009.5 mb 0.00 in0.0 mm 0.00 in/hr0.0 mm/hr 0.00 in0.0 mm
04:45 AM 48.0°F8.9°C 44.6°F7.0°C 88% 3.0 mph SSW4.8 kmh SSW 10.0 mph16.1 kmh 29.82 in1009.8 mb 0.00 in0.0 mm 0.00 in/hr0.0 mm/hr 0.00 in0.0 mm
04:30 AM 48.2°F9.0°C 44.8°F7.1°C 88% 2.0 mph SSW3.2 kmh SSW 9.0 mph14.5 kmh 29.82 in1009.8 mb 0.00 in0.0 mm 0.00 in/hr0.0 mm/hr 0.00 in0.0 mm
04:15 AM 48.5°F9.2°C 44.8°F7.1°C 87% 3.0 mph SSW4.8 kmh SSW 14.0 mph22.5 kmh 29.82 in1009.8 mb 0.00 in0.0 mm 0.00 in/hr0.0 mm/hr 0.00 in0.0 mm
04:00 AM 48.7°F9.3°C 45.0°F7.2°C 87% 4.0 mph SSW6.4 kmh SSW 11.0 mph17.7 kmh 29.82 in1009.8 mb 0.00 in0.0 mm 0.00 in/hr0.0 mm/hr 0.00 in0.0 mm
03:45 AM 48.9°F9.4°C 45.2°F7.3°C 87% 5.0 mph SSW8.0 kmh SSW 15.0 mph24.1 kmh 29.83 in1010.2 mb 0.00 in0.0 mm 0.00 in/hr0.0 mm/hr 0.00 in0.0 mm
03:30 AM 49.1°F9.5°C 45.1°F7.3°C 86% 3.0 mph SSW4.8 kmh SSW 13.0 mph20.9 kmh 29.84 in1010.5 mb 0.00 in0.0 mm 0.00 in/hr0.0 mm/hr 0.00 in0.0 mm
03:15 AM 49.2°F9.6°C 45.2°F7.3°C 86% 4.0 mph SSW6.4 kmh SSW 11.0 mph17.7 kmh 29.84 in1010.5 mb 0.00 in0.0 mm 0.00 in/hr0.0 mm/hr 0.00 in0.0 mm
03:00 AM 49.4°F9.7°C 45.4°F7.4°C 86% 4.0 mph SSW6.4 kmh SSW 11.0 mph17.7 kmh 29.84 in1010.5 mb 0.00 in0.0 mm 0.00 in/hr0.0 mm/hr 0.00 in0.0 mm
02:45 AM 49.5°F9.7°C 45.2°F7.3°C 85% 5.0 mph SSW8.0 kmh SSW 14.0 mph22.5 kmh 29.85 in1010.8 mb 0.00 in0.0 mm 0.00 in/hr0.0 mm/hr 0.00 in0.0 mm
02:30 AM 49.5°F9.7°C 45.2°F7.3°C 85% 4.0 mph SSW6.4 kmh SSW 12.0 mph19.3 kmh 29.86 in1011.2 mb 0.00 in0.0 mm 0.00 in/hr0.0 mm/hr 0.00 in0.0 mm
02:15 AM 49.5°F9.7°C 45.2°F7.3°C 85% 4.0 mph SSW6.4 kmh SSW 11.0 mph17.7 kmh 29.86 in1011.2 mb 0.00 in0.0 mm 0.00 in/hr0.0 mm/hr 0.00 in0.0 mm
02:00 AM 49.5°F9.7°C 45.2°F7.3°C 85% 4.0 mph SSW6.4 kmh SSW 16.0 mph25.7 kmh 29.86 in1011.2 mb 0.00 in0.0 mm 0.00 in/hr0.0 mm/hr 0.00 in0.0 mm
01:45 AM 49.7°F9.8°C 45.4°F7.4°C 85% 5.0 mph SSW8.0 kmh SSW 15.0 mph24.1 kmh 29.87 in1011.5 mb 0.00 in0.0 mm 0.00 in/hr0.0 mm/hr 0.00 in0.0 mm
01:30 AM 49.7°F9.8°C 45.1°F7.3°C 84% 3.0 mph SSW4.8 kmh SSW 13.0 mph20.9 kmh 29.88 in1011.9 mb 0.00 in0.0 mm 0.00 in/hr0.0 mm/hr 0.00 in0.0 mm
01:15 AM 50.0°F10.0°C 45.0°F7.2°C 83% 5.0 mph SSW8.0 kmh SSW 12.0 mph19.3 kmh 29.88 in1011.9 mb 0.00 in0.0 mm 0.00 in/hr0.0 mm/hr 0.00 in0.0 mm
01:00 AM 50.1°F10.1°C 45.1°F7.3°C 83% 4.0 mph S6.4 kmh S 11.0 mph17.7 kmh 29.89 in1012.2 mb 0.00 in0.0 mm 0.00 in/hr0.0 mm/hr 0.00 in0.0 mm
12:45 AM 50.1°F10.1°C 44.8°F7.1°C 82% 4.0 mph SSW6.4 kmh SSW 12.0 mph19.3 kmh 29.89 in1012.2 mb 0.00 in0.0 mm 0.00 in/hr0.0 mm/hr 0.00 in0.0 mm
12:30 AM 50.3°F10.2°C 45.0°F7.2°C 82% 5.0 mph SSW8.0 kmh SSW 13.0 mph20.9 kmh 29.90 in1012.5 mb 0.00 in0.0 mm 0.00 in/hr0.0 mm/hr 0.00 in0.0 mm
12:15 AM 50.3°F10.2°C 45.0°F7.2°C 82% 5.0 mph SSW8.0 kmh SSW 16.0 mph25.7 kmh 29.91 in1012.9 mb 0.00 in0.0 mm 0.00 in/hr0.0 mm/hr 0.00 in0.0 mm
12:00 AM 50.5°F10.3°C 44.9°F7.2°C 81% 5.0 mph SSW8.0 kmh SSW 13.0 mph20.9 kmh 29.91 in1012.9 mb 0.00 in0.0 mm 0.00 in/hr0.0 mm/hr 0.00 in0.0 mm